Aérodrome :
LOGIN :

S'inscrire | Disclaimer

   EN    FR    IT 

 










Légende :    VFR   VFR Marginal   IFR   IFR Intensif   IFR Très Intensif
Visi : 
Plafond : 
>= 8 km
>= 3000ft
5 à 8 km
1000 à 3000 ft
1500m à 5 km
500 à 1000 ft
800 à 1500m
200 à 500 ft
< 800m
< 200 ft
Symboles :   Orages  Brouillard  Fortes neiges  Fortes précipitations  Vent > 20 kt
SIGMETs :   Divers  Orages  Givrage  Turbulence  Onde Orograph.  Cendres Volcan.






- Altitude de l'aérodrome : 288 ft
- Code IATA : BZZ


EGVN - RAF Brize Norton

DERNIER METAR :
  • 232020Z 26002KT CAVOK 06/01 Q1023 NOSIG RMK BLU BLU

METARs EXPIRÉS :
  • 231950Z 29002KT CAVOK 07/01 Q1023 NOSIG
  • 231850Z 27003KT CAVOK 07/00 Q1023 NOSIG
  • 231820Z 29005KT CAVOK 08/01 Q1022 NOSIG RMK BLU BLU
  • 231750Z 28005KT CAVOK 08/01 Q1022 NOSIG RMK BLU BLU

TAF TAF EGVN
Valide du 23 à 21h jusqu'au 24 à 21h UTC


231948Z 2321/2421 27005KT 9999 SCT025
BECMG 2400/2403 BKN007
TEMPO 2402/2406 3000 -DZ BKN004
BECMG 2406/2408 22015G25KT BKN015
TEMPO 2408/2414 5000 RA BKN012
BECMG 2412/2414 25018G30KT
BECMG 2414/2416 BKN028
BECMG 2416/2419 26012KT



MET'MAP, la Météo Aéronautique d'un coup d'oeil ! - Copyright ORBIFLY Décembre 2007 - Disclaimer

ORBIFLY MET'MAP TEAM :

Programmation & Développement : Alexandra Zaïnal
Sur une idée originale de : Baudouin d'Aumeries
Assistance à la programmation : Marc-Olivier Méhu
Soutien technique & logistique : Manuel Goepfert

Contact : metmap@orbifly.com




SOURCES & CREDITS :

   NOAA